Time;durP1;ratioP1;P1;durP2;ratioP2;P2;SDS_P1;SDS_P2;PMS_P1;PMS_P2;Temp;Humidity;BMP_temperature;BMP_pressure;BME280_temperature;BME280_humidity;BME280_pressure;Samples;Min_cycle;Max_cycle;Signal;HPM_P1;HPM_P2
2023/09/24 00:00:33;;;;;;;4.40;1.10;;;;;;;8.82;100.00;99571.22;5014000;28;20037;-78
2023/09/24 00:02:59;;;;;;;3.38;1.13;;;;;;;8.79;100.00;99585.06;5022638;28;20485;-78
2023/09/24 00:05:24;;;;;;;2.05;1.15;;;;;;;8.87;100.00;99593.13;5013874;28;20040;-78
2023/09/24 00:07:50;;;;;;;2.40;1.20;;;;;;;8.77;100.00;99584.41;5012262;28;20018;-78
2023/09/24 00:10:16;;;;;;;4.40;1.80;;;;;;;8.78;100.00;99588.78;5012140;28;20051;-78
2023/09/24 00:12:42;;;;;;;3.80;1.38;;;;;;;8.83;100.00;99602.63;5011568;28;20033;-78
2023/09/24 00:15:08;;;;;;;2.33;1.00;;;;;;;8.78;100.00;99596.88;5013359;28;20034;-79
2023/09/24 00:17:33;;;;;;;2.38;1.15;;;;;;;8.69;100.00;99601.44;5020020;28;20092;-78
2023/09/24 00:22:26;;;;;;;5.30;1.85;;;;;;;8.71;100.00;99614.78;4987147;28;20058;-63
2023/09/24 00:24:52;;;;;;;4.30;1.50;;;;;;;8.69;100.00;99616.78;4990077;28;20485;-63
2023/09/24 00:27:17;;;;;;;4.80;1.20;;;;;;;8.63;100.00;99615.63;4985764;28;20011;-63
2023/09/24 00:29:43;;;;;;;3.22;1.58;;;;;;;8.63;100.00;99622.88;5003801;28;20029;-63
2023/09/24 00:32:09;;;;;;;4.13;1.70;;;;;;;8.59;100.00;99624.22;5010012;28;20042;-63
2023/09/24 00:34:34;;;;;;;4.45;2.00;;;;;;;8.65;100.00;99620.88;5005780;28;20504;-63
2023/09/24 00:37:00;;;;;;;1.70;1.30;;;;;;;8.58;100.00;99620.69;4993162;28;20037;-63
2023/09/24 00:39:25;;;;;;;3.42;1.17;;;;;;;8.50;100.00;99621.53;4996501;28;20109;-66
2023/09/24 00:41:51;;;;;;;4.05;1.25;;;;;;;8.41;100.00;99632.50;5004855;28;20048;-63
2023/09/24 00:44:17;;;;;;;5.93;1.20;;;;;;;8.34;100.00;99633.16;5016026;28;20097;-63
2023/09/24 00:46:44;;;;;;;4.07;1.30;;;;;;;8.29;100.00;99638.19;4999675;28;20054;-63
2023/09/24 00:49:12;;;;;;;5.70;1.63;;;;;;;8.34;100.00;99633.16;4998808;28;20029;-63
2023/09/24 00:51:39;;;;;;;1.42;1.10;;;;;;;8.42;100.00;99637.72;4996805;28;20023;-64
2023/09/24 00:54:06;;;;;;;3.58;1.30;;;;;;;8.34;100.00;99635.84;5011855;28;20033;-66
2023/09/24 00:56:32;;;;;;;2.05;1.05;;;;;;;8.37;100.00;99634.66;5016849;28;20033;-63
2023/09/24 00:58:58;;;;;;;1.70;1.05;;;;;;;8.32;100.00;99637.03;5011651;28;20114;-63
2023/09/24 01:01:24;;;;;;;1.95;1.20;;;;;;;8.21;100.00;99640.06;5011045;28;20160;-69
2023/09/24 01:03:53;;;;;;;3.70;1.20;;;;;;;8.10;100.00;99642.06;5010812;28;20518;-63
2023/09/24 01:06:19;;;;;;;4.32;1.40;;;;;;;8.08;100.00;99648.63;5015076;28;20060;-64
2023/09/24 01:08:45;;;;;;;1.77;1.17;;;;;;;7.99;100.00;99653.19;5015380;28;20615;-63
2023/09/24 01:11:11;;;;;;;3.25;1.10;;;;;;;7.98;100.00;99654.16;5008391;28;20045;-64
2023/09/24 01:13:37;;;;;;;1.75;1.20;;;;;;;7.86;100.00;99650.13;5001288;28;20026;-63
2023/09/24 01:16:04;;;;;;;2.28;1.38;;;;;;;7.92;100.00;99662.09;5010118;28;20030;-64
2023/09/24 01:18:31;;;;;;;6.20;1.77;;;;;;;7.85;100.00;99661.88;5018086;28;20018;-63
2023/09/24 01:20:56;;;;;;;4.38;1.67;;;;;;;7.95;100.00;99662.59;4996067;28;20034;-63
2023/09/24 01:23:22;;;;;;;2.72;2.13;;;;;;;7.91;100.00;99661.22;5008624;28;20108;-64
2023/09/24 01:25:48;;;;;;;2.67;1.30;;;;;;;7.78;100.00;99650.94;5013059;28;20041;-64
2023/09/24 01:28:14;;;;;;;2.20;1.50;;;;;;;7.85;100.00;99657.34;5018395;28;20022;-63
2023/09/24 01:30:40;;;;;;;4.32;1.42;;;;;;;7.81;100.00;99655.16;5014776;28;20069;-64
2023/09/24 01:33:06;;;;;;;4.70;1.48;;;;;;;7.80;100.00;99658.84;5015545;28;20022;-63
2023/09/24 01:35:34;;;;;;;4.65;1.30;;;;;;;7.67;100.00;99657.44;5010604;28;20311;-63
2023/09/24 01:38:04;;;;;;;3.00;1.42;;;;;;;7.65;100.00;99653.22;5000371;28;20121;-63
2023/09/24 01:40:30;;;;;;;3.22;1.60;;;;;;;7.57;100.00;99647.81;4999573;28;20034;-63
2023/09/24 01:42:59;;;;;;;4.68;1.50;;;;;;;7.52;100.00;99656.41;5009400;28;20371;-63
2023/09/24 01:45:28;;;;;;;4.82;1.27;;;;;;;7.51;100.00;99657.41;5011125;28;20048;-64
2023/09/24 01:47:55;;;;;;;1.88;1.30;;;;;;;7.57;100.00;99653.22;5007570;28;20030;-63
2023/09/24 01:50:22;;;;;;;3.45;1.45;;;;;;;7.59;100.00;99651.19;5008428;28;20034;-63
2023/09/24 01:52:47;;;;;;;3.35;1.45;;;;;;;7.62;100.00;99651.75;5005686;28;20033;-63
2023/09/24 01:55:15;;;;;;;4.40;1.40;;;;;;;7.62;100.00;99654.44;5005840;28;20026;-64
2023/09/24 01:57:44;;;;;;;1.87;1.33;;;;;;;7.53;100.00;99663.47;4996963;28;20362;-64
2023/09/24 02:00:26;;;;;;;1.88;1.15;;;;;;;7.49;100.00;99656.72;5003827;28;20041;-64
2023/09/24 02:02:54;;;;;;;2.30;1.20;;;;;;;7.52;100.00;99667.19;5013934;28;20033;-64
2023/09/24 02:05:20;;;;;;;2.22;1.40;;;;;;;7.59;100.00;99668.19;5010814;28;20053;-64
2023/09/24 02:07:48;;;;;;;4.20;1.42;;;;;;;7.60;100.00;99666.38;4997290;28;20053;-64
2023/09/24 02:10:16;;;;;;;5.38;1.33;;;;;;;7.53;100.00;99662.63;5002993;28;20093;-64
2023/09/24 02:12:42;;;;;;;3.60;1.25;;;;;;;7.41;100.00;99671.00;5011516;28;20029;-64
2023/09/24 02:15:11;;;;;;;4.18;1.30;;;;;;;7.34;100.00;99664.59;5011848;28;20079;-64
2023/09/24 02:17:41;;;;;;;7.40;1.42;;;;;;;7.29;100.00;99658.84;5005526;28;20021;-64
2023/09/24 02:20:25;;;;;;;3.72;1.20;;;;;;;7.27;100.00;99662.69;5010369;28;20073;-64
2023/09/24 02:22:52;;;;;;;4.43;1.63;;;;;;;7.32;100.00;99654.97;5004821;28;20026;-64
2023/09/24 02:25:21;;;;;;;2.75;1.58;;;;;;;7.34;100.00;99666.44;5009361;28;20030;-64
2023/09/24 02:27:50;;;;;;;3.75;1.50;;;;;;;7.30;100.00;99663.19;5000837;28;20112;-64
2023/09/24 02:30:17;;;;;;;4.75;1.55;;;;;;;7.21;100.00;99670.41;5011346;28;20458;-64
2023/09/24 02:32:46;;;;;;;3.65;1.30;;;;;;;7.13;100.00;99677.59;5007547;28;20037;-64
2023/09/24 02:35:13;;;;;;;4.07;1.30;;;;;;;7.10;100.00;99678.75;5011587;28;20179;-64
2023/09/24 02:37:45;;;;;;;3.47;2.28;;;;;;;7.15;100.00;99680.94;4995457;28;20065;-64
2023/09/24 02:40:19;;;;;;;6.90;1.42;;;;;;;7.20;100.00;99684.00;5009632;28;20036;-64
2023/09/24 02:42:48;;;;;;;4.75;1.85;;;;;;;7.24;100.00;99680.84;4999364;28;20030;-64
2023/09/24 02:45:16;;;;;;;3.75;1.65;;;;;;;7.17;100.00;99687.03;5002375;28;20018;-64
2023/09/24 02:47:42;;;;;;;8.10;1.75;;;;;;;7.09;100.00;99690.50;5005511;28;20022;-64
2023/09/24 02:50:14;;;;;;;2.58;1.98;;;;;;;7.05;100.00;99686.47;5002626;28;20033;-64
2023/09/24 02:52:43;;;;;;;2.63;1.55;;;;;;;6.99;100.00;99687.91;5000214;28;20023;-64
2023/09/24 02:55:10;;;;;;;3.70;1.90;;;;;;;7.01;100.00;99683.22;5005723;28;20025;-64
2023/09/24 02:57:40;;;;;;;3.80;1.85;;;;;;;6.96;100.00;99690.94;5011082;28;20022;-64
2023/09/24 03:00:26;;;;;;;5.20;2.03;;;;;;;6.86;100.00;99692.88;5009349;28;20018;-64
2023/09/24 03:02:53;;;;;;;5.90;1.70;;;;;;;6.74;100.00;99695.00;5008472;28;20030;-64
2023/09/24 03:05:20;;;;;;;3.10;1.60;;;;;;;6.77;100.00;99693.84;5012452;28;20018;-64
2023/09/24 03:07:49;;;;;;;3.05;1.52;;;;;;;6.91;100.00;99697.78;5029077;28;20029;-64
2023/09/24 03:10:16;;;;;;;5.93;1.80;;;;;;;7.01;100.00;99703.91;5026460;28;20030;-64
2023/09/24 03:12:41;;;;;;;2.92;1.83;;;;;;;6.87;100.00;99693.75;5006042;28;20049;-64
2023/09/24 03:15:10;;;;;;;2.85;1.90;;;;;;;6.80;100.00;99702.44;4995306;28;20030;-63
2023/09/24 03:17:35;;;;;;;5.40;1.90;;;;;;;6.88;100.00;99708.88;5005765;28;20046;-64
2023/09/24 03:20:05;;;;;;;6.40;2.30;;;;;;;6.83;100.00;99719.25;5004868;28;20072;-64
2023/09/24 03:22:30;;;;;;;2.78;1.83;;;;;;;6.82;100.00;99709.50;5005884;28;20022;-64
2023/09/24 03:24:57;;;;;;;5.10;2.22;;;;;;;6.79;100.00;99716.88;5012594;28;20028;-64
2023/09/24 03:27:22;;;;;;;5.47;1.70;;;;;;;6.66;100.00;99719.13;5012126;28;20080;-64
2023/09/24 03:29:48;;;;;;;2.92;1.90;;;;;;;6.67;100.00;99719.97;5007680;28;20030;-64
2023/09/24 03:32:14;;;;;;;3.25;1.90;;;;;;;6.67;100.00;99726.19;5002742;28;20117;-63
2023/09/24 03:34:40;;;;;;;4.65;1.95;;;;;;;6.70;100.00;99720.50;5010118;28;20028;-64
2023/09/24 03:37:09;;;;;;;2.47;1.73;;;;;;;6.57;100.00;99733.50;5023973;28;20413;-64
2023/09/24 03:39:35;;;;;;;5.15;1.42;;;;;;;6.47;100.00;99736.28;5006541;28;20539;-64
2023/09/24 03:42:00;;;;;;;2.90;1.50;;;;;;;6.43;100.00;99740.28;5009086;28;20045;-64
2023/09/24 03:44:25;;;;;;;3.13;1.58;;;;;;;6.56;100.00;99742.56;4997690;28;20120;-64
2023/09/24 03:46:51;;;;;;;8.90;1.63;;;;;;;6.60;100.00;99741.25;5003766;28;20528;-64
2023/09/24 03:49:16;;;;;;;6.10;2.00;;;;;;;6.62;100.00;99747.31;5007924;28;20038;-63
2023/09/24 03:51:42;;;;;;;4.85;2.15;;;;;;;6.62;100.00;99749.19;5009297;28;20030;-64
2023/09/24 03:54:07;;;;;;;5.93;2.10;;;;;;;6.63;100.00;99746.34;5008038;28;20041;-64
2023/09/24 03:56:32;;;;;;;5.97;2.17;;;;;;;6.54;100.00;99748.09;5004601;28;20026;-64
2023/09/24 03:58:59;;;;;;;3.30;1.67;;;;;;;6.48;100.00;99753.25;5007386;28;20033;-65
2023/09/24 04:01:24;;;;;;;3.53;1.90;;;;;;;6.41;100.00;99757.56;5013492;28;20026;-64
2023/09/24 04:03:51;;;;;;;3.88;1.70;;;;;;;6.42;100.00;99759.22;5004801;28;20388;-64
2023/09/24 04:06:17;;;;;;;4.25;2.63;;;;;;;6.34;100.00;99762.69;4996354;28;20129;-64
2023/09/24 04:08:42;;;;;;;3.13;1.67;;;;;;;6.26;100.00;99758.09;5011043;28;20026;-64
2023/09/24 04:11:11;;;;;;;2.47;1.20;;;;;;;6.17;100.00;99766.22;4995843;28;20072;-64
2023/09/24 04:13:38;;;;;;;2.13;1.45;;;;;;;6.05;100.00;99768.25;4996584;28;20026;-64
2023/09/24 04:16:12;;;;;;;1.98;1.40;;;;;;;6.01;100.00;99774.94;5005735;28;20432;-64
2023/09/24 04:18:41;;;;;;;2.65;1.63;;;;;;;5.99;100.00;99768.84;5007634;28;20022;-64
2023/09/24 04:21:17;;;;;;;2.47;1.70;;;;;;;6.02;100.00;99776.59;5011714;28;20022;-64
2023/09/24 04:23:43;;;;;;;3.08;1.40;;;;;;;5.96;100.00;99778.06;5021047;28;21200;-64
2023/09/24 04:26:22;;;;;;;3.45;1.83;;;;;;;6.13;100.00;99787.13;4996196;28;20022;-64
2023/09/24 04:28:50;;;;;;;3.47;1.80;;;;;;;6.12;100.00;99797.06;5008644;28;20029;-64
2023/09/24 04:31:16;;;;;;;2.15;1.42;;;;;;;6.09;100.00;99793.81;5004756;28;20041;-64
2023/09/24 04:33:44;;;;;;;5.72;1.90;;;;;;;6.14;100.00;99789.69;5018045;28;20022;-64
2023/09/24 04:36:10;;;;;;;5.53;1.80;;;;;;;6.09;100.00;99796.50;5003226;28;20119;-64
2023/09/24 04:38:37;;;;;;;4.22;1.80;;;;;;;5.99;100.00;99798.41;5002740;28;20019;-65
2023/09/24 04:41:03;;;;;;;3.72;2.15;;;;;;;6.03;100.00;99797.13;5006155;28;20022;-64
2023/09/24 04:43:29;;;;;;;2.75;1.70;;;;;;;6.11;100.00;99799.91;4994825;28;20030;-68
2023/09/24 04:45:54;;;;;;;4.10;1.85;;;;;;;6.01;100.00;99799.09;5014876;28;20045;-64
2023/09/24 04:48:20;;;;;;;3.85;1.60;;;;;;;5.90;100.00;99805.50;5012468;28;20021;-64
2023/09/24 04:50:45;;;;;;;2.13;1.50;;;;;;;5.79;100.00;99801.16;5008276;28;20037;-64
2023/09/24 04:53:10;;;;;;;4.07;1.70;;;;;;;5.74;100.00;99805.25;5011885;28;20144;-64
2023/09/24 04:55:36;;;;;;;3.03;1.95;;;;;;;5.93;100.00;99807.88;5007582;28;20105;-64
2023/09/24 04:58:02;;;;;;;2.90;1.38;;;;;;;5.88;100.00;99808.31;5006189;28;20018;-64
2023/09/24 05:00:28;;;;;;;2.17;1.30;;;;;;;5.75;100.00;99809.66;5001339;28;20030;-64
2023/09/24 05:02:54;;;;;;;2.97;1.60;;;;;;;5.77;100.00;99808.50;4998937;28;20030;-64
2023/09/24 05:05:20;;;;;;;5.43;1.80;;;;;;;5.77;100.00;99813.03;5017430;28;20058;-64
2023/09/24 05:07:46;;;;;;;4.38;1.80;;;;;;;5.88;100.00;99816.38;4999040;28;20042;-64
2023/09/24 05:10:12;;;;;;;3.42;1.80;;;;;;;5.93;100.00;99822.19;5015530;28;20041;-64
2023/09/24 05:12:38;;;;;;;15.40;1.85;;;;;;;6.04;100.00;99821.13;5001246;28;20022;-64
2023/09/24 05:15:03;;;;;;;3.53;2.20;;;;;;;6.10;100.00;99820.56;4982721;28;20084;-63
2023/09/24 05:17:32;;;;;;;1.92;1.52;;;;;;;6.02;100.00;99828.50;5009800;28;20068;-64
2023/09/24 05:19:57;;;;;;;3.63;1.38;;;;;;;5.97;100.00;99840.69;5006866;28;20025;-64
2023/09/24 05:22:23;;;;;;;6.18;1.85;;;;;;;6.05;100.00;99838.97;5011608;28;20469;-64
2023/09/24 05:24:49;;;;;;;5.88;2.00;;;;;;;6.13;100.00;99840.88;5010721;28;20021;-64
2023/09/24 05:27:16;;;;;;;5.80;1.85;;;;;;;6.18;100.00;99833.22;5003497;28;20469;-64
2023/09/24 05:29:45;;;;;;;3.63;1.73;;;;;;;6.22;100.00;99831.94;5006414;28;20058;-64
2023/09/24 05:32:11;;;;;;;3.75;1.30;;;;;;;6.24;100.00;99835.31;5009247;28;20349;-64
2023/09/24 05:34:36;;;;;;;4.07;1.63;;;;;;;6.27;100.00;99836.88;4992335;28;20030;-64
2023/09/24 05:37:02;;;;;;;3.05;1.35;;;;;;;6.15;100.00;99839.72;5000530;28;20040;-64
2023/09/24 05:39:28;;;;;;;1.90;1.33;;;;;;;6.27;100.00;99828.81;5020150;28;20030;-64
2023/09/24 05:41:53;;;;;;;5.38;1.40;;;;;;;6.42;100.00;99835.38;5013314;28;20030;-64
2023/09/24 05:44:20;;;;;;;5.43;2.10;;;;;;;6.58;100.00;99846.28;5002529;28;20453;-64
2023/09/24 05:46:45;;;;;;;4.93;1.65;;;;;;;6.65;100.00;99843.81;5011897;28;20385;-64
2023/09/24 05:49:11;;;;;;;3.88;1.55;;;;;;;6.76;100.00;99846.31;5022928;28;20029;-64
2023/09/24 05:51:36;;;;;;;2.40;1.55;;;;;;;7.06;100.00;99844.22;5000232;28;20438;-64
2023/09/24 05:54:02;;;;;;;3.47;1.50;;;;;;;8.46;100.00;99844.03;5000575;28;20127;-65
2023/09/24 05:56:28;;;;;;;3.47;1.30;;;;;;;10.53;100.00;99812.84;5016339;28;20468;-64
2023/09/24 05:58:56;;;;;;;5.18;0.93;;;;;;;12.34;100.00;99765.00;4998868;28;20081;-64
2023/09/24 06:01:22;;;;;;;1.40;0.80;;;;;;;13.94;100.00;99759.06;5004710;28;20476;-64
2023/09/24 06:03:48;;;;;;;1.83;0.80;;;;;;;15.22;100.00;99750.97;5006148;28;20105;-64
2023/09/24 06:06:14;;;;;;;2.60;0.90;;;;;;;15.91;100.00;99753.22;4995878;28;20393;-64
2023/09/24 06:08:39;;;;;;;2.70;0.68;;;;;;;16.73;100.00;99756.16;5011874;28;20025;-64
2023/09/24 06:11:05;;;;;;;2.33;1.10;;;;;;;17.56;100.00;99763.31;5008804;28;20133;-64
2023/09/24 06:13:32;;;;;;;1.77;0.90;;;;;;;18.51;100.00;99760.13;5018761;28;20034;-64
2023/09/24 06:16:02;;;;;;;1.33;0.85;;;;;;;19.15;99.33;99759.63;5005342;28;20030;-64
2023/09/24 06:18:27;;;;;;;2.95;0.90;;;;;;;20.10;95.03;99767.66;5007976;28;20025;-64
2023/09/24 06:20:54;;;;;;;2.58;0.80;;;;;;;20.34;80.15;99773.06;5009033;28;20517;-64
2023/09/24 06:23:20;;;;;;;5.15;0.80;;;;;;;21.37;73.46;99764.78;5007734;23;1124139;-53
2023/09/24 06:25:53;;;;;;;16.23;0.90;;;;;;;21.08;72.04;99773.13;5025678;28;20116;-53
2023/09/24 06:28:19;;;;;;;3.38;0.90;;;;;;;21.59;70.46;99774.00;5016738;28;20183;-54
2023/09/24 06:30:44;;;;;;;2.17;0.90;;;;;;;22.82;68.55;99767.31;5013458;28;20026;-54
2023/09/24 06:33:10;;;;;;;4.13;0.90;;;;;;;23.12;64.29;99775.06;5000925;28;20071;-54
2023/09/24 06:35:37;;;;;;;2.38;0.95;;;;;;;22.73;60.41;99772.44;5011828;28;20029;-54
2023/09/24 06:38:02;;;;;;;1.00;0.82;;;;;;;23.90;56.16;99771.00;5013162;28;20018;-55
2023/09/24 06:40:28;;;;;;;3.22;1.00;;;;;;;24.45;54.34;99772.41;5011268;28;20033;-55
2023/09/24 06:42:55;;;;;;;2.25;1.00;;;;;;;24.90;54.44;99777.22;5008012;28;20038;-54
2023/09/24 06:45:20;;;;;;;2.08;0.88;;;;;;;24.72;52.64;99777.72;5005464;28;20129;-55
2023/09/24 06:47:45;;;;;;;3.35;0.68;;;;;;;26.52;49.77;99773.72;5002627;28;20114;-54
2023/09/24 06:50:11;;;;;;;1.05;0.70;;;;;;;26.18;49.78;99771.63;5024211;28;20022;-54
2023/09/24 06:52:39;;;;;;;1.85;0.80;;;;;;;26.73;48.12;99766.13;5010015;28;20033;-54
2023/09/24 06:55:11;;;;;;;2.47;0.68;;;;;;;27.14;47.51;99771.38;5003163;28;20030;-55
2023/09/24 06:57:36;;;;;;;3.55;0.68;;;;;;;28.15;46.18;99771.56;5007359;28;20026;-55
2023/09/24 07:00:04;;;;;;;4.22;0.88;;;;;;;27.49;47.56;99775.03;5005443;28;20053;-55
2023/09/24 07:02:30;;;;;;;2.55;0.90;;;;;;;25.82;50.13;99778.34;5008591;28;20120;-54
2023/09/24 07:04:55;;;;;;;1.88;0.90;;;;;;;26.11;50.50;99790.50;5006534;28;20112;-55
2023/09/24 07:07:24;;;;;;;1.20;0.75;;;;;;;26.39;51.74;99788.19;4998033;28;20496;-54
2023/09/24 07:09:49;;;;;;;1.95;0.63;;;;;;;26.37;51.77;99782.09;5008229;28;20036;-54
2023/09/24 07:12:16;;;;;;;3.60;0.90;;;;;;;26.26;51.70;99786.84;5017344;28;20022;-54
2023/09/24 07:14:41;;;;;;;1.60;0.60;;;;;;;27.82;48.88;99783.63;5012476;28;20030;-55
2023/09/24 07:17:07;;;;;;;7.68;0.93;;;;;;;26.24;50.38;99794.63;5011854;28;20412;-55
2023/09/24 07:19:32;;;;;;;3.30;1.05;;;;;;;26.18;50.90;99801.31;5025669;28;20261;-54
2023/09/24 07:21:58;;;;;;;7.15;1.00;;;;;;;25.97;51.06;99795.81;4997371;28;20026;-54
2023/09/24 07:24:24;;;;;;;4.60;0.73;;;;;;;26.43;51.38;99792.03;5026105;28;20053;-55
2023/09/24 07:26:50;;;;;;;4.38;0.90;;;;;;;26.78;49.90;99791.06;5010456;28;20457;-54
2023/09/24 07:29:15;;;;;;;6.00;1.17;;;;;;;27.77;49.24;99792.81;5004844;28;20061;-54
2023/09/24 07:31:41;;;;;;;4.63;0.93;;;;;;;28.09;46.05;99795.03;5008631;28;20068;-54
2023/09/24 07:34:06;;;;;;;3.40;0.90;;;;;;;28.48;45.80;99795.97;4999418;28;20042;-56
2023/09/24 07:36:32;;;;;;;2.38;1.00;;;;;;;29.72;43.76;99793.84;5011951;28;20108;-55
2023/09/24 07:38:57;;;;;;;3.00;0.77;;;;;;;30.52;42.13;99798.19;5008835;28;20531;-55
2023/09/24 07:41:23;;;;;;;5.07;0.98;;;;;;;32.13;40.76;99794.84;5011800;28;20064;-55
2023/09/24 07:43:48;;;;;;;4.30;1.20;;;;;;;32.12;41.14;99793.19;5010401;28;20389;-55
2023/09/24 07:46:19;;;;;;;3.13;0.93;;;;;;;31.20;40.53;99790.78;5011822;28;20041;-55
2023/09/24 07:48:49;;;;;;;2.53;1.05;;;;;;;31.91;39.74;99794.88;5008314;28;20117;-55
2023/09/24 07:51:18;;;;;;;4.43;1.08;;;;;;;31.40;39.77;99794.25;5010633;28;20029;-55
2023/09/24 07:53:45;;;;;;;3.78;1.20;;;;;;;30.88;40.35;99786.22;5009697;28;20102;-55
2023/09/24 07:56:11;;;;;;;5.13;0.93;;;;;;;31.94;38.96;99791.47;5003929;28;20365;-55
2023/09/24 07:58:38;;;;;;;4.63;1.00;;;;;;;34.49;37.20;99785.19;5008055;28;20079;-55
2023/09/24 08:01:14;;;;;;;1.60;0.98;;;;;;;33.83;37.58;99797.69;4998802;28;20034;-55
2023/09/24 08:03:41;;;;;;;3.85;1.35;;;;;;;30.70;40.18;99792.75;5007774;28;20030;-55
2023/09/24 08:06:07;;;;;;;3.20;1.17;;;;;;;30.74;40.23;99794.63;5010963;28;20037;-55
2023/09/24 08:08:34;;;;;;;3.80;1.05;;;;;;;30.36;40.76;99794.84;5001584;28;20038;-55
2023/09/24 08:11:00;;;;;;;2.50;1.13;;;;;;;30.83;41.20;99793.91;5011578;28;20025;-54
2023/09/24 08:13:27;;;;;;;1.42;0.85;;;;;;;31.75;41.40;99800.88;5008112;28;20132;-54
2023/09/24 08:15:56;;;;;;;1.70;0.90;;;;;;;30.93;41.54;99807.63;4999044;28;20030;-54
2023/09/24 08:18:21;;;;;;;;;;;;;;;32.16;39.78;99798.97;5011201;28;20116;-54
2023/09/24 08:20:47;;;;;;;2.25;0.93;;;;;;;33.86;38.24;99801.81;5011369;28;20479;-54
2023/09/24 08:23:15;;;;;;;2.50;1.17;;;;;;;32.61;39.33;99807.22;5009380;28;20113;-54
2023/09/24 08:25:41;;;;;;;2.45;0.88;;;;;;;33.94;37.87;99800.13;5010929;28;20040;-54
2023/09/24 08:28:07;;;;;;;1.38;0.90;;;;;;;32.42;38.92;99796.28;5006197;28;20042;-54
2023/09/24 08:30:33;;;;;;;1.90;0.90;;;;;;;33.44;38.06;99792.28;5004217;28;20603;-54
2023/09/24 08:32:59;;;;;;;2.58;0.88;;;;;;;33.37;37.89;99804.00;5005175;28;20128;-54
2023/09/24 08:35:25;;;;;;;2.75;0.98;;;;;;;34.10;36.64;99790.00;5000358;28;20485;-54
2023/09/24 08:37:51;;;;;;;2.25;1.00;;;;;;;33.03;37.35;99799.22;5003206;28;20029;-55
2023/09/24 08:40:17;;;;;;;2.55;0.90;;;;;;;31.59;39.29;99806.06;5009759;28;20124;-55
2023/09/24 08:42:47;;;;;;;1.67;0.90;;;;;;;31.06;39.60;99806.78;5009893;28;20121;-55
2023/09/24 08:45:15;;;;;;;2.70;0.88;;;;;;;31.92;39.77;99802.97;5003628;28;20351;-56
2023/09/24 08:47:42;;;;;;;2.15;0.95;;;;;;;33.07;38.11;99794.63;5007853;28;20033;-56
2023/09/24 08:50:08;;;;;;;3.58;0.98;;;;;;;33.28;37.59;99798.41;5010083;28;20355;-55
2023/09/24 08:52:37;;;;;;;2.60;0.90;;;;;;;33.00;38.89;99800.69;5010243;28;20061;-56
2023/09/24 08:55:08;;;;;;;1.63;0.90;;;;;;;33.49;37.84;99800.53;5010755;28;20022;-56
2023/09/24 08:57:34;;;;;;;2.17;0.90;;;;;;;33.94;37.68;99792.53;5003125;28;20308;-56
2023/09/24 09:00:00;;;;;;;2.45;0.90;;;;;;;34.11;37.37;99790.84;5008152;28;20044;-55
2023/09/24 09:02:27;;;;;;;2.47;0.82;;;;;;;34.86;35.31;99786.28;5007389;28;20053;-56
2023/09/24 09:04:55;;;;;;;1.70;0.82;;;;;;;36.09;34.72;99780.38;5004068;28;20061;-55
2023/09/24 09:07:20;;;;;;;2.80;0.88;;;;;;;33.56;36.79;99781.22;5007343;28;20461;-57
2023/09/24 09:09:56;;;;;;;2.50;0.85;;;;;;;32.69;38.15;99781.19;5010461;28;20041;-56
2023/09/24 09:12:23;;;;;;;2.25;0.90;;;;;;;33.58;37.69;99781.72;5017753;28;20741;-55
2023/09/24 09:14:49;;;;;;;2.90;0.90;;;;;;;34.79;36.34;99773.94;5010624;28;20474;-55
2023/09/24 09:17:15;;;;;;;2.47;0.98;;;;;;;35.52;35.08;99773.50;5009293;28;20037;-56
2023/09/24 09:19:59;;;;;;;3.55;0.98;;;;;;;34.51;36.43;99765.16;5011916;28;20034;-55
2023/09/24 09:22:29;;;;;;;1.70;0.80;;;;;;;35.68;34.97;99777.31;5012706;28;20075;-54
2023/09/24 09:25:05;;;;;;;3.58;1.10;;;;;;;35.38;35.83;99773.00;5028395;28;20032;-55
2023/09/24 09:27:35;;;;;;;1.88;0.98;;;;;;;35.92;34.23;99770.09;5012957;28;20436;-56
2023/09/24 09:30:15;;;;;;;2.83;0.90;;;;;;;35.73;34.09;99765.00;5011078;28;20102;-56
2023/09/24 09:32:42;;;;;;;3.10;0.90;;;;;;;35.98;33.57;99772.34;5002612;28;20068;-55
2023/09/24 09:35:08;;;;;;;2.13;0.95;;;;;;;36.85;32.71;99765.50;5004668;28;20030;-56
2023/09/24 09:37:33;;;;;;;2.15;0.95;;;;;;;35.77;33.30;99763.16;5011372;28;20069;-56
2023/09/24 09:39:59;;;;;;;2.88;0.80;;;;;;;35.07;34.31;99762.97;5004018;28;20030;-56
2023/09/24 09:42:30;;;;;;;2.55;0.80;;;;;;;35.09;35.44;99755.88;5006451;28;20041;-56
2023/09/24 09:44:59;;;;;;;3.78;0.90;;;;;;;35.73;34.59;99754.56;5025023;28;20030;-56
2023/09/24 09:47:27;;;;;;;2.95;0.88;;;;;;;36.79;33.82;99749.22;4998471;28;20475;-57
2023/09/24 09:50:00;;;;;;;4.10;1.27;;;;;;;36.59;32.34;99749.00;5013532;28;20022;-56
2023/09/24 09:52:40;;;;;;;2.35;0.80;;;;;;;36.89;31.93;99750.69;5016961;28;20103;-56
2023/09/24 09:55:06;;;;;;;4.30;1.00;;;;;;;37.38;32.82;99762.63;5024001;28;20054;-56
2023/09/24 09:57:34;;;;;;;3.83;1.30;;;;;;;37.89;32.30;99756.38;5030022;28;20077;-56
2023/09/24 10:00:09;;;;;;;1.73;1.00;;;;;;;36.04;32.23;99752.38;5012437;28;20026;-56
2023/09/24 10:02:35;;;;;;;3.33;1.33;;;;;;;36.03;31.84;99753.56;5011641;28;20038;-56
2023/09/24 10:05:01;;;;;;;2.92;1.17;;;;;;;35.12;33.68;99746.75;5006299;28;20047;-55
2023/09/24 10:07:27;;;;;;;1.90;0.80;;;;;;;35.02;34.38;99749.94;5008603;28;20133;-55
2023/09/24 10:09:52;;;;;;;2.13;1.02;;;;;;;36.03;32.31;99745.13;5004481;28;20117;-56
2023/09/24 10:12:37;;;;;;;4.22;1.20;;;;;;;34.88;34.04;99744.59;5006247;28;20165;-57
2023/09/24 10:15:29;;;;;;;3.13;1.10;;;;;;;35.94;34.10;99734.75;5006522;28;20091;-54
2023/09/24 10:18:07;;;;;;;3.42;0.95;;;;;;;35.07;33.24;99734.84;5013066;28;20036;-57
2023/09/24 10:20:55;;;;;;;2.45;1.08;;;;;;;35.88;32.51;99735.38;5001176;28;20034;-55
2023/09/24 10:23:30;;;;;;;2.03;1.00;;;;;;;36.09;32.07;99729.66;4997790;28;20040;-55
2023/09/24 10:26:05;;;;;;;2.45;1.10;;;;;;;35.81;31.72;99730.28;5017623;28;20032;-56
2023/09/24 10:28:50;;;;;;;4.55;0.93;;;;;;;36.42;32.48;99735.97;5014267;28;20112;-56
2023/09/24 10:31:20;;;;;;;2.28;0.82;;;;;;;35.68;33.20;99728.63;5028264;28;20032;-56
2023/09/24 10:33:57;;;;;;;5.50;1.05;;;;;;;37.34;31.38;99725.03;5008976;28;20029;-56
2023/09/24 10:36:31;;;;;;;1.70;0.70;;;;;;;37.68;31.73;99734.88;5009338;28;20034;-55
2023/09/24 10:39:14;;;;;;;1.98;0.75;;;;;;;35.90;31.53;99728.22;5000770;28;20018;-56
2023/09/24 10:42:25;;;;;;;2.67;1.00;;;;;;;37.53;31.48;99730.00;5012946;28;20022;-55
2023/09/24 10:45:14;;;;;;;1.65;0.80;;;;;;;37.14;30.47;99732.53;4998249;28;20030;-55
2023/09/24 10:47:41;;;;;;;2.13;0.95;;;;;;;37.81;29.88;99729.94;5030166;28;20116;-56
2023/09/24 10:50:15;;;;;;;1.65;0.93;;;;;;;34.76;32.43;99727.66;5011120;28;20030;-55
2023/09/24 10:52:54;;;;;;;1.10;0.70;;;;;;;36.41;31.07;99717.41;5010403;28;20037;-55
2023/09/24 10:55:33;;;;;;;2.67;1.05;;;;;;;36.21;31.38;99718.38;4999667;28;20026;-55
2023/09/24 10:58:14;;;;;;;2.25;0.90;;;;;;;37.44;31.27;99726.50;5022801;28;20347;-56
2023/09/24 11:00:44;;;;;;;2.38;1.13;;;;;;;37.04;30.04;99724.56;5011942;28;20438;-56
2023/09/24 11:03:13;;;;;;;5.15;0.88;;;;;;;37.12;29.55;99715.13;5026773;28;20022;-56
2023/09/24 11:05:46;;;;;;;2.55;1.20;;;;;;;36.97;29.95;99710.22;4995432;28;20071;-57
2023/09/24 11:08:13;;;;;;;3.15;1.08;;;;;;;37.27;29.99;99717.19;5011988;28;20032;-56
2023/09/24 11:10:39;;;;;;;1.27;0.73;;;;;;;35.99;31.27;99711.19;5012774;28;20036;-56
2023/09/24 11:13:06;;;;;;;2.70;1.10;;;;;;;31.47;35.45;99716.31;5006222;28;20368;-56
2023/09/24 11:15:36;;;;;;;4.22;0.90;;;;;;;30.33;37.81;99717.31;5010554;28;20076;-55
2023/09/24 11:18:03;;;;;;;3.35;1.23;;;;;;;30.07;38.51;99710.59;5000680;28;20033;-56
2023/09/24 11:20:31;;;;;;;2.15;1.00;;;;;;;32.60;34.37;99710.31;5011180;28;20057;-54
2023/09/24 11:23:10;;;;;;;2.38;0.98;;;;;;;33.11;34.20;99703.06;5006572;28;20026;-56
2023/09/24 11:25:36;;;;;;;1.95;0.93;;;;;;;34.89;33.99;99701.25;5000577;28;20120;-55
2023/09/24 11:28:03;;;;;;;1.38;1.00;;;;;;;34.42;34.69;99697.78;5009576;28;20052;-55
2023/09/24 11:30:46;;;;;;;1.73;0.85;;;;;;;31.91;37.49;99710.91;5008913;28;20041;-55
2023/09/24 11:33:11;;;;;;;2.60;1.30;;;;;;;32.56;35.00;99700.91;5005730;28;20493;-56
2023/09/24 11:35:37;;;;;;;2.03;1.05;;;;;;;32.26;37.24;99697.88;5002286;28;20045;-55
2023/09/24 11:38:02;;;;;;;2.28;0.90;;;;;;;30.20;40.24;99697.75;5008518;28;20028;-55
2023/09/24 11:40:30;;;;;;;1.95;0.93;;;;;;;28.50;41.61;99707.41;4999833;28;20046;-55